Time;durP1;ratioP1;P1;durP2;ratioP2;P2;SDS_P1;SDS_P2;PMS_P1;PMS_P2;Temp;Humidity;BMP_temperature;BMP_pressure;BME280_temperature;BME280_humidity;BME280_pressure;Samples;Min_cycle;Max_cycle;Signal;HPM_P1;HPM_P2
2022/10/24 00:00:33;;;;;;;4.37;2.23;;;13.80;99.90;;;;;;6216232;23;20198;-44
2022/10/24 00:03:00;;;;;;;7.43;3.13;;;13.70;99.90;;;;;;6190771;23;20590;-41
2022/10/24 00:05:26;;;;;;;9.37;3.07;;;13.70;99.90;;;;;;6216203;23;20515;-43
2022/10/24 00:07:52;;;;;;;7.97;2.77;;;13.70;99.90;;;;;;6216476;23;20234;-41
2022/10/24 00:10:18;;;;;;;10.90;2.80;;;13.70;99.90;;;;;;6216892;23;20161;-42
2022/10/24 00:12:45;;;;;;;5.27;2.30;;;13.60;99.90;;;;;;6189776;23;20160;-43
2022/10/24 00:15:11;;;;;;;5.47;2.63;;;13.60;99.90;;;;;;6216409;23;20238;-42
2022/10/24 00:17:37;;;;;;;10.10;2.97;;;13.70;99.90;;;;;;6216208;23;20176;-41
2022/10/24 00:20:04;;;;;;;4.47;2.10;;;13.60;99.90;;;;;;6217431;23;20182;-48
2022/10/24 00:22:29;;;;;;;11.67;2.70;;;13.70;99.90;;;;;;6217280;23;20223;-50
2022/10/24 00:24:55;;;;;;;8.27;2.80;;;13.70;99.90;;;;;;6217229;23;20179;-46
2022/10/24 00:27:21;;;;;;;13.27;2.87;;;13.80;99.90;;;;;;6217063;23;20172;-48
2022/10/24 00:29:46;;;;;;;12.10;3.10;;;13.90;99.90;;;;;;6216355;23;20157;-50
2022/10/24 00:32:13;;;;;;;8.93;3.27;;;14.00;99.90;;;;;;6189022;23;20168;-47
2022/10/24 00:34:39;;;;;;;6.10;2.97;;;14.10;99.90;;;;;;6189076;23;20508;-46
2022/10/24 00:37:04;;;;;;;6.03;2.70;;;14.10;99.90;;;;;;6215594;23;20206;-47
2022/10/24 00:39:30;;;;;;;9.93;2.73;;;14.00;99.90;;;;;;6215928;23;20180;-48
2022/10/24 00:41:57;;;;;;;4.87;2.40;;;14.00;99.90;;;;;;6215907;23;20579;-49
2022/10/24 00:44:32;;;;;;;11.67;2.87;;;14.00;99.90;;;;;;6215623;23;20211;-48
2022/10/24 00:47:14;;;;;;;10.83;2.70;;;14.00;99.90;;;;;;6215548;23;20489;-46
2022/10/24 00:49:48;;;;;;;2.60;1.93;;;14.00;99.90;;;;;;6216107;23;20185;-47
2022/10/24 00:52:21;;;;;;;4.40;2.03;;;13.90;99.90;;;;;;6216569;23;20152;-47
2022/10/24 00:54:48;;;;;;;5.27;1.97;;;13.90;99.90;;;;;;6216528;23;20140;-47
2022/10/24 00:57:36;;;;;;;6.13;1.97;;;13.90;99.90;;;;;;6216606;23;20610;-49
2022/10/24 01:00:09;;;;;;;3.43;1.43;;;14.00;99.90;;;;;;6216679;23;20333;-43
2022/10/24 01:02:35;;;;;;;5.03;1.57;;;14.00;99.90;;;;;;6215821;23;20191;-41
2022/10/24 01:05:02;;;;;;;7.90;2.23;;;14.00;99.90;;;;;;6215792;23;20148;-43
2022/10/24 01:07:42;;;;;;;7.87;1.80;;;14.10;99.90;;;;;;6215930;23;20195;-39
2022/10/24 01:10:30;;;;;;;3.37;1.70;;;14.20;99.90;;;;;;6215928;23;20148;-40
2022/10/24 01:13:19;;;;;;;5.87;1.67;;;14.20;99.90;;;;;;6216520;23;20552;-40
2022/10/24 01:15:47;;;;;;;3.70;1.80;;;14.30;99.90;;;;;;6216844;23;20148;-41
2022/10/24 01:18:48;;;;;;;5.70;1.87;;;14.30;99.90;;;;;;6215772;23;20177;-41
2022/10/24 01:22:04;;;;;;;5.67;1.80;;;14.40;99.90;;;;;;6195529;23;20183;-40
2022/10/24 01:24:37;;;;;;;3.27;1.73;;;14.40;99.90;;;;;;6065830;23;20164;-39
2022/10/24 01:27:20;;;;;;;6.40;1.80;;;14.40;99.90;;;;;;6067243;23;20202;-42
2022/10/24 01:30:00;;;;;;;3.27;1.60;;;14.40;99.90;;;;;;6163549;23;20156;-41
2022/10/24 01:32:51;;;;;;;5.50;1.57;;;14.50;99.90;;;;;;6217546;23;20206;-45
2022/10/24 01:35:35;;;;;;;5.10;1.70;;;14.60;99.90;;;;;;6190676;23;20149;-47
2022/10/24 01:38:33;;;;;;;8.57;2.03;;;14.70;99.90;;;;;;6217973;23;20255;-45
2022/10/24 01:41:11;;;;;;;3.83;1.63;;;14.80;99.90;;;;;;6134898;23;20620;-46
2022/10/24 01:44:01;;;;;;;5.90;2.07;;;14.80;99.90;;;;;;6217051;23;20140;-48
2022/10/24 01:46:36;;;;;;;3.63;1.80;;;14.80;99.90;;;;;;6217334;23;20157;-46
2022/10/24 01:49:15;;;;;;;6.00;1.83;;;14.90;99.90;;;;;;6217577;23;20171;-45
2022/10/24 01:51:42;;;;;;;3.93;1.30;;;14.90;99.90;;;;;;6217128;23;20215;-46
2022/10/24 01:54:09;;;;;;;4.47;1.57;;;14.90;99.90;;;;;;6217358;23;20218;-47
2022/10/24 01:56:35;;;;;;;6.53;1.70;;;14.90;99.90;;;;;;6217334;23;20160;-48
2022/10/24 01:59:05;;;;;;;5.50;1.60;;;14.90;99.90;;;;;;6190129;23;20184;-47
2022/10/24 02:01:31;;;;;;;4.67;1.50;;;14.90;99.90;;;;;;6216922;23;20152;-45
2022/10/24 02:04:02;;;;;;;5.53;1.60;;;15.00;99.90;;;;;;6217050;23;20155;-45
2022/10/24 02:06:33;;;;;;;2.57;1.40;;;15.00;99.90;;;;;;6216870;23;20250;-46
2022/10/24 02:09:12;;;;;;;2.47;1.33;;;15.00;99.90;;;;;;6216840;23;20614;-44
2022/10/24 02:11:39;;;;;;;3.63;1.20;;;15.00;99.90;;;;;;6217014;23;20151;-45
2022/10/24 02:14:27;;;;;;;3.70;1.40;;;15.10;99.90;;;;;;6216739;23;20152;-46
2022/10/24 02:16:53;;;;;;;7.57;1.73;;;15.10;99.90;;;;;;6216729;23;20203;-45
2022/10/24 02:19:20;;;;;;;4.30;1.60;;;15.10;99.90;;;;;;6216612;23;20219;-46
2022/10/24 02:22:06;;;;;;;7.53;1.20;;;15.20;99.90;;;;;;6216689;23;20162;-46
2022/10/24 02:24:36;;;;;;;3.13;1.50;;;15.20;99.90;;;;;;6216972;23;20152;-47
2022/10/24 02:27:25;;;;;;;4.70;1.67;;;15.20;99.90;;;;;;6216897;23;20211;-48
2022/10/24 02:30:02;;;;;;;5.70;1.20;;;15.20;99.90;;;;;;6217047;23;20168;-46
2022/10/24 02:32:34;;;;;;;3.83;1.60;;;15.20;99.90;;;;;;6216819;23;20156;-47
2022/10/24 02:35:02;;;;;;;2.70;1.50;;;15.10;99.90;;;;;;6216741;23;20198;-46
2022/10/24 02:37:30;;;;;;;2.83;1.33;;;15.10;99.90;;;;;;6216450;23;20176;-45
2022/10/24 02:39:58;;;;;;;2.00;1.17;;;15.10;99.90;;;;;;6216412;23;20172;-47
2022/10/24 02:42:27;;;;;;;4.63;1.50;;;15.10;99.90;;;;;;6216418;23;20583;-45
2022/10/24 02:44:53;;;;;;;4.60;1.20;;;15.10;99.90;;;;;;6216752;23;20492;-45
2022/10/24 02:47:20;;;;;;;3.43;1.17;;;15.10;99.90;;;;;;6216253;23;20172;-45
2022/10/24 02:49:46;;;;;;;5.87;1.27;;;15.10;99.90;;;;;;6216635;23;20167;-45
2022/10/24 02:52:13;;;;;;;6.73;1.40;;;15.00;99.90;;;;;;6216676;23;20519;-45
2022/10/24 02:54:38;;;;;;;5.93;1.20;;;15.00;99.90;;;;;;6216659;23;20156;-48
2022/10/24 02:57:04;;;;;;;3.87;1.50;;;15.00;99.90;;;;;;6216122;23;20184;-45
2022/10/24 02:59:30;;;;;;;5.67;1.20;;;15.10;99.90;;;;;;6189672;23;20269;-44
2022/10/24 03:01:56;;;;;;;4.33;1.90;;;15.10;99.90;;;;;;6216565;23;20183;-47
2022/10/24 03:04:22;;;;;;;6.67;1.80;;;15.00;99.90;;;;;;6189512;23;20167;-48
2022/10/24 03:06:47;;;;;;;6.13;1.53;;;15.00;99.90;;;;;;6215986;23;20195;-48
2022/10/24 03:09:13;;;;;;;3.57;1.63;;;15.00;99.90;;;;;;6216758;23;20228;-48
2022/10/24 03:11:39;;;;;;;7.50;1.33;;;15.00;99.90;;;;;;6216502;23;20161;-46
2022/10/24 03:14:05;;;;;;;4.23;1.40;;;15.00;99.90;;;;;;6217120;23;20152;-47
2022/10/24 03:16:31;;;;;;;4.83;1.30;;;15.10;99.90;;;;;;6216882;23;20160;-47
2022/10/24 03:18:56;;;;;;;4.20;1.20;;;15.00;99.90;;;;;;6216387;23;20688;-48
2022/10/24 03:21:22;;;;;;;1.83;1.20;;;15.00;99.90;;;;;;6216175;23;20633;-46
2022/10/24 03:23:48;;;;;;;7.13;1.20;;;15.10;99.90;;;;;;6216647;23;20153;-41
2022/10/24 03:26:13;;;;;;;4.23;1.53;;;15.10;99.90;;;;;;6216956;23;20187;-48
2022/10/24 03:28:39;;;;;;;4.33;1.30;;;15.00;99.90;;;;;;6216764;23;20179;-49
2022/10/24 03:31:05;;;;;;;11.10;1.40;;;15.00;99.90;;;;;;6217516;23;20152;-48
2022/10/24 03:33:31;;;;;;;5.40;1.50;;;15.00;99.90;;;;;;6217029;23;20227;-46
2022/10/24 03:35:56;;;;;;;5.37;1.83;;;14.90;99.90;;;;;;6217759;23;20258;-45
2022/10/24 03:38:22;;;;;;;5.03;1.40;;;14.90;99.90;;;;;;6217234;23;20188;-48
2022/10/24 03:40:49;;;;;;;4.63;1.57;;;14.80;99.90;;;;;;6217627;23;20152;-47
2022/10/24 03:43:15;;;;;;;1.63;1.07;;;14.80;99.90;;;;;;6216828;23;20289;-48
2022/10/24 03:45:40;;;;;;;2.93;1.00;;;14.80;99.90;;;;;;6217508;23;20523;-48
2022/10/24 03:48:06;;;;;;;3.30;1.10;;;14.80;99.90;;;;;;6217355;23;20179;-46
2022/10/24 03:50:32;;;;;;;4.97;1.50;;;14.80;99.90;;;;;;6190563;23;20172;-48
2022/10/24 03:52:58;;;;;;;3.70;1.17;;;14.80;99.90;;;;;;6190462;23;20160;-46
2022/10/24 03:55:24;;;;;;;4.03;1.10;;;14.80;99.90;;;;;;6217428;23;20182;-47
2022/10/24 03:57:50;;;;;;;6.33;1.50;;;14.70;99.90;;;;;;6190345;23;20176;-47
2022/10/24 04:00:17;;;;;;;4.43;1.77;;;14.80;99.90;;;;;;6217990;23;20176;-47
2022/10/24 04:02:43;;;;;;;3.20;1.50;;;14.70;99.90;;;;;;6217465;23;20152;-47
2022/10/24 04:05:09;;;;;;;4.10;1.10;;;14.80;99.90;;;;;;6217499;23;20186;-45
2022/10/24 04:07:35;;;;;;;5.17;1.30;;;14.70;99.90;;;;;;6216563;23;20242;-46
2022/10/24 04:10:00;;;;;;;5.10;1.37;;;14.70;99.90;;;;;;6217213;23;20243;-48
2022/10/24 04:12:26;;;;;;;2.40;1.23;;;14.80;99.90;;;;;;6218397;23;20187;-46
2022/10/24 04:14:51;;;;;;;4.73;1.30;;;14.80;99.90;;;;;;6190260;23;20167;-46
2022/10/24 04:17:17;;;;;;;6.33;1.30;;;14.80;99.90;;;;;;6217241;23;20256;-46
2022/10/24 04:19:43;;;;;;;3.33;1.37;;;14.80;99.90;;;;;;6216722;23;20168;-47
2022/10/24 04:22:09;;;;;;;3.30;1.10;;;14.80;99.90;;;;;;6190819;23;20137;-48
2022/10/24 04:24:36;;;;;;;7.13;1.07;;;14.80;99.90;;;;;;6190440;23;20155;-46
2022/10/24 04:27:02;;;;;;;5.40;1.20;;;14.90;99.90;;;;;;6217130;23;20175;-46
2022/10/24 04:29:28;;;;;;;6.07;1.20;;;14.90;99.90;;;;;;6217435;23;20160;-45
2022/10/24 04:31:53;;;;;;;8.80;1.40;;;14.90;99.90;;;;;;6217779;23;20590;-47
2022/10/24 04:34:19;;;;;;;4.83;1.17;;;14.90;99.90;;;;;;6217413;23;20539;-47
2022/10/24 04:36:44;;;;;;;6.90;1.50;;;14.90;99.90;;;;;;6217652;23;20160;-48
2022/10/24 04:39:10;;;;;;;4.50;1.13;;;14.80;99.90;;;;;;6216652;23;20279;-48
2022/10/24 04:41:35;;;;;;;5.50;0.97;;;14.80;99.90;;;;;;6217197;23;20214;-47
2022/10/24 04:44:01;;;;;;;8.00;1.40;;;14.70;99.90;;;;;;6217205;23;20629;-46
2022/10/24 04:46:26;;;;;;;6.77;1.13;;;14.70;99.90;;;;;;6217466;23;20506;-48
2022/10/24 04:48:52;;;;;;;3.30;0.90;;;14.70;99.90;;;;;;6216620;23;20211;-49
2022/10/24 04:51:18;;;;;;;4.17;1.07;;;14.60;99.90;;;;;;6217005;23;20596;-47
2022/10/24 04:53:43;;;;;;;5.13;0.90;;;14.60;99.90;;;;;;6217593;23;20167;-45
2022/10/24 04:56:09;;;;;;;5.73;1.03;;;14.60;99.90;;;;;;6216881;23;20610;-48
2022/10/24 04:58:35;;;;;;;4.67;1.33;;;14.60;99.90;;;;;;6217277;23;20234;-48
2022/10/24 05:01:00;;;;;;;4.10;1.20;;;14.60;99.90;;;;;;6217886;23;20153;-46
2022/10/24 05:03:26;;;;;;;6.93;1.00;;;14.50;99.90;;;;;;6220843;23;20180;-47
2022/10/24 05:05:52;;;;;;;3.33;1.00;;;14.50;99.90;;;;;;6219460;23;20303;-48
2022/10/24 05:08:17;;;;;;;3.90;0.77;;;14.50;99.90;;;;;;6192394;23;20556;-47
2022/10/24 05:10:43;;;;;;;2.17;1.00;;;14.50;99.90;;;;;;6219954;23;20211;-48
2022/10/24 05:13:09;;;;;;;7.50;1.23;;;14.50;99.90;;;;;;6219427;23;20287;-46
2022/10/24 05:15:35;;;;;;;5.47;1.00;;;14.60;99.90;;;;;;6219201;23;20594;-45
2022/10/24 05:18:00;;;;;;;5.40;1.23;;;14.60;99.90;;;;;;6219079;23;20226;-45
2022/10/24 05:20:27;;;;;;;6.27;1.27;;;14.60;99.90;;;;;;6219109;23;20184;-48
2022/10/24 05:22:52;;;;;;;3.97;1.20;;;14.50;99.90;;;;;;6219395;23;20536;-48
2022/10/24 05:25:19;;;;;;;6.07;0.90;;;14.50;99.90;;;;;;6219166;23;20587;-48
2022/10/24 05:27:44;;;;;;;4.80;0.97;;;14.40;99.90;;;;;;6219421;23;20172;-46
2022/10/24 05:30:10;;;;;;;3.03;0.90;;;14.40;99.90;;;;;;6219632;23;20164;-48
2022/10/24 05:32:36;;;;;;;1.97;1.03;;;14.40;99.90;;;;;;6220017;23;20160;-48
2022/10/24 05:35:03;;;;;;;4.17;1.00;;;14.40;99.90;;;;;;6219387;23;20170;-46
2022/10/24 05:37:28;;;;;;;4.87;1.03;;;14.30;99.90;;;;;;6219401;23;20222;-46
2022/10/24 05:39:54;;;;;;;4.33;0.90;;;14.30;99.90;;;;;;6193310;23;20184;-45
2022/10/24 05:42:19;;;;;;;4.77;1.10;;;14.20;99.90;;;;;;6219301;23;20594;-46
2022/10/24 05:44:45;;;;;;;5.23;1.20;;;14.20;99.90;;;;;;6219119;23;20148;-48
2022/10/24 05:47:11;;;;;;;3.17;1.30;;;14.10;99.90;;;;;;6192859;23;20192;-46
2022/10/24 05:49:36;;;;;;;7.57;1.20;;;14.20;99.90;;;;;;6219348;23;20236;-48
2022/10/24 05:52:02;;;;;;;3.60;1.27;;;14.20;99.90;;;;;;6219027;23;20156;-48
2022/10/24 05:54:28;;;;;;;3.63;1.00;;;14.10;99.90;;;;;;6219329;23;20227;-46
2022/10/24 05:56:54;;;;;;;2.63;0.97;;;14.10;99.90;;;;;;6218889;23;20159;-48
2022/10/24 05:59:19;;;;;;;5.10;1.20;;;14.10;99.90;;;;;;6219034;23;20187;-48
2022/10/24 06:01:45;;;;;;;10.00;1.37;;;14.00;99.90;;;;;;6219365;23;20230;-47
2022/10/24 06:04:10;;;;;;;5.73;0.80;;;14.00;99.90;;;;;;6218618;23;20604;-47
2022/10/24 06:06:40;;;;;;;4.47;1.30;;;13.90;99.90;;;;;;6219580;23;20153;-48
2022/10/24 06:09:06;;;;;;;4.33;1.13;;;13.90;99.90;;;;;;6220055;23;20163;-47
2022/10/24 06:11:32;;;;;;;5.90;1.27;;;13.80;99.90;;;;;;6219836;23;20176;-46
2022/10/24 06:13:57;;;;;;;5.23;1.40;;;13.80;99.90;;;;;;6220400;23;20160;-45
2022/10/24 06:16:25;;;;;;;5.53;0.90;;;13.70;99.90;;;;;;6193122;23;20165;-46
2022/10/24 06:18:50;;;;;;;4.77;0.93;;;13.70;99.90;;;;;;6219883;23;20180;-50
2022/10/24 06:21:16;;;;;;;2.77;0.93;;;13.70;99.90;;;;;;6219768;23;20157;-49
2022/10/24 06:23:41;;;;;;;7.50;1.53;;;13.60;99.90;;;;;;6219821;23;20167;-47
2022/10/24 06:26:10;;;;;;;4.50;1.10;;;13.70;99.90;;;;;;6219690;23;20599;-48
2022/10/24 06:28:39;;;;;;;7.37;1.00;;;13.70;99.90;;;;;;6219489;23;20172;-46
2022/10/24 06:31:06;;;;;;;6.57;1.20;;;13.60;99.90;;;;;;6219238;23;20190;-44
2022/10/24 06:33:33;;;;;;;2.77;1.00;;;13.60;99.90;;;;;;6216477;23;20160;-41
2022/10/24 06:36:04;;;;;;;4.10;1.30;;;13.60;99.90;;;;;;6216833;23;20152;-40
2022/10/24 06:38:30;;;;;;;8.00;1.30;;;13.60;99.90;;;;;;6216453;23;20183;-42
2022/10/24 06:40:56;;;;;;;4.77;1.00;;;13.60;99.90;;;;;;6216373;23;20206;-44
2022/10/24 06:43:21;;;;;;;3.90;1.20;;;13.60;99.90;;;;;;6216358;23;20523;-40
2022/10/24 06:45:47;;;;;;;4.17;1.20;;;13.70;99.90;;;;;;6216837;23;20674;-40
2022/10/24 06:48:13;;;;;;;5.20;1.30;;;13.80;99.90;;;;;;6216543;23;20180;-43
2022/10/24 06:50:39;;;;;;;8.40;1.10;;;13.90;99.90;;;;;;6216689;23;20205;-39
2022/10/24 06:53:06;;;;;;;5.27;1.50;;;14.00;99.90;;;;;;6216349;23;20152;-41
2022/10/24 06:55:32;;;;;;;8.13;1.53;;;14.10;99.90;;;;;;6216705;23;20160;-41
2022/10/24 06:57:58;;;;;;;3.93;1.03;;;14.30;99.90;;;;;;6216374;23;20594;-40
2022/10/24 07:00:24;;;;;;;6.67;1.80;;;14.50;99.90;;;;;;6216245;23;20187;-41
2022/10/24 07:02:50;;;;;;;5.97;1.50;;;14.60;99.90;;;;;;6216653;23;20516;-40
2022/10/24 07:05:16;;;;;;;5.03;1.50;;;14.60;99.90;;;;;;6217028;23;20179;-40
2022/10/24 07:07:42;;;;;;;8.20;1.20;;;14.70;99.90;;;;;;6189267;23;20199;-42
2022/10/24 07:10:12;;;;;;;5.93;1.53;;;14.80;99.90;;;;;;6216189;23;20152;-43
2022/10/24 07:12:38;;;;;;;5.80;1.33;;;14.80;99.90;;;;;;6216260;23;20179;-41
2022/10/24 07:15:04;;;;;;;10.10;1.43;;;14.80;99.90;;;;;;6216472;23;20156;-41
2022/10/24 07:17:30;;;;;;;3.63;1.00;;;14.80;99.90;;;;;;6216455;23;20539;-43
2022/10/24 07:19:56;;;;;;;3.80;1.20;;;14.80;99.90;;;;;;6216053;23;20176;-40
2022/10/24 07:22:22;;;;;;;4.57;1.17;;;14.90;99.90;;;;;;6216426;23;20148;-42
2022/10/24 07:24:52;;;;;;;5.63;1.47;;;15.00;99.90;;;;;;6216299;23;20235;-41
2022/10/24 07:27:18;;;;;;;3.83;0.83;;;15.00;99.90;;;;;;6216376;23;20251;-39
2022/10/24 07:29:44;;;;;;;7.73;1.67;;;15.00;99.90;;;;;;6216330;23;20606;-41
2022/10/24 07:32:09;;;;;;;8.07;1.47;;;15.00;99.90;;;;;;6216722;23;20152;-40
2022/10/24 07:34:35;;;;;;;6.80;1.20;;;15.00;99.90;;;;;;6216306;23;20159;-41
2022/10/24 07:37:03;;;;;;;8.70;1.10;;;15.10;99.90;;;;;;6216113;23;20184;-44
2022/10/24 07:39:28;;;;;;;7.43;1.43;;;15.00;99.90;;;;;;6189238;23;20208;-42
2022/10/24 07:41:54;;;;;;;4.53;1.10;;;15.10;99.90;;;;;;6215859;23;20164;-43
2022/10/24 07:44:19;;;;;;;5.70;1.30;;;15.10;99.90;;;;;;6189285;23;20230;-42
2022/10/24 07:46:45;;;;;;;7.17;1.60;;;15.20;99.90;;;;;;6216086;23;20152;-43
2022/10/24 07:49:11;;;;;;;8.00;1.73;;;15.30;99.90;;;;;;6189254;23;20607;-41
2022/10/24 07:51:36;;;;;;;5.23;1.33;;;15.40;99.90;;;;;;6216131;23;20160;-39
2022/10/24 07:54:02;;;;;;;5.70;1.40;;;15.30;99.90;;;;;;6189346;23;20251;-42
2022/10/24 07:56:27;;;;;;;4.73;1.90;;;15.40;99.90;;;;;;6215770;23;20159;-42
2022/10/24 07:58:54;;;;;;;5.13;1.60;;;15.40;99.90;;;;;;6215693;23;20176;-42
2022/10/24 08:01:23;;;;;;;6.37;1.40;;;15.50;99.90;;;;;;6216126;23;20163;-39
2022/10/24 08:03:49;;;;;;;5.73;1.33;;;15.60;99.90;;;;;;6216300;23;20235;-38
2022/10/24 08:06:18;;;;;;;3.50;0.80;;;15.80;99.90;;;;;;6215963;23;20187;-40
2022/10/24 08:08:44;;;;;;;6.13;1.73;;;15.80;99.90;;;;;;6215835;23;20192;-41
2022/10/24 08:11:16;;;;;;;5.60;1.07;;;15.80;99.90;;;;;;6215630;23;20170;-43
2022/10/24 08:13:42;;;;;;;4.50;1.50;;;15.90;99.90;;;;;;6216112;23;20148;-41
2022/10/24 08:16:11;;;;;;;4.77;1.17;;;15.90;99.90;;;;;;6215693;23;20587;-41
2022/10/24 08:18:38;;;;;;;7.97;1.43;;;15.90;99.90;;;;;;6215561;23;20196;-42
2022/10/24 08:21:06;;;;;;;5.50;1.43;;;15.90;99.90;;;;;;6215881;23;20641;-42
2022/10/24 08:23:33;;;;;;;5.90;1.60;;;16.00;99.90;;;;;;6188950;23;20156;-42
2022/10/24 08:25:58;;;;;;;8.27;1.43;;;16.00;99.90;;;;;;6215903;23;20483;-42
2022/10/24 08:28:24;;;;;;;5.33;0.90;;;16.10;99.90;;;;;;6215572;23;20178;-42
2022/10/24 08:31:01;;;;;;;6.40;1.53;;;16.10;99.90;;;;;;6215986;23;20156;-43
2022/10/24 08:33:27;;;;;;;10.77;1.33;;;16.10;99.90;;;;;;6215647;23;20137;-42
2022/10/24 08:35:58;;;;;;;5.17;1.33;;;16.20;99.90;;;;;;6216948;23;20163;-42
2022/10/24 08:38:23;;;;;;;6.17;1.43;;;16.30;99.90;;;;;;6217969;23;20172;-42
2022/10/24 08:40:49;;;;;;;5.43;1.00;;;16.30;99.90;;;;;;6218151;23;20176;-41
2022/10/24 08:43:16;;;;;;;10.67;1.73;;;16.30;99.90;;;;;;6218180;23;20483;-40
2022/10/24 08:46:03;;;;;;;8.27;1.10;;;16.40;99.90;;;;;;6218160;23;20151;-40
2022/10/24 08:48:40;;;;;;;7.43;1.50;;;16.50;99.90;;;;;;6217982;23;20179;-42
2022/10/24 08:51:29;;;;;;;5.10;1.50;;;16.50;99.90;;;;;;6217753;23;20566;-43
2022/10/24 08:53:57;;;;;;;6.43;1.40;;;16.60;99.90;;;;;;6191155;23;20621;-40
2022/10/24 08:56:25;;;;;;;5.90;1.20;;;16.60;99.90;;;;;;6218011;23;20157;-42
2022/10/24 08:58:51;;;;;;;6.80;1.20;;;16.60;99.90;;;;;;6217753;23;20231;-42
2022/10/24 09:01:29;;;;;;;10.03;1.40;;;16.60;99.90;;;;;;6217538;23;20149;-43
2022/10/24 09:03:58;;;;;;;10.97;1.90;;;16.70;99.90;;;;;;6190937;23;20283;-43
2022/10/24 09:06:27;;;;;;;7.73;1.70;;;16.70;99.90;;;;;;6217871;23;20488;-41
2022/10/24 09:08:57;;;;;;;7.47;1.33;;;16.70;99.90;;;;;;6218717;23;20190;-40
2022/10/24 09:11:47;;;;;;;5.47;1.30;;;16.70;99.90;;;;;;6217637;23;20163;-39
2022/10/24 09:14:16;;;;;;;9.40;2.23;;;16.70;99.90;;;;;;6217631;23;20140;-40
2022/10/24 09:16:44;;;;;;;5.17;1.47;;;16.80;99.90;;;;;;6217736;23;20575;-41
2022/10/24 09:19:17;;;;;;;7.27;1.60;;;16.70;99.90;;;;;;6217726;23;20219;-42
2022/10/24 09:21:44;;;;;;;10.10;1.60;;;16.70;99.90;;;;;;6217716;23;20179;-42
2022/10/24 09:24:32;;;;;;;6.33;1.20;;;16.70;99.90;;;;;;6190771;23;20190;-41
2022/10/24 09:26:59;;;;;;;6.77;1.43;;;16.80;99.90;;;;;;6190594;23;20148;-38
2022/10/24 09:29:28;;;;;;;5.33;1.27;;;16.80;99.90;;;;;;6217993;23;20467;-40
2022/10/24 09:31:54;;;;;;;2.27;0.87;;;16.90;99.90;;;;;;6217357;23;20179;-42
2022/10/24 09:34:20;;;;;;;4.77;1.67;;;16.90;99.90;;;;;;6190925;23;20159;-40
2022/10/24 09:36:45;;;;;;;11.03;2.20;;;17.00;99.90;;;;;;6217250;23;20186;-43
2022/10/24 09:39:25;;;;;;;5.90;1.13;;;17.00;99.90;;;;;;6190678;23;20176;-40
2022/10/24 09:41:52;;;;;;;7.97;1.50;;;17.10;99.90;;;;;;6190581;23;20682;-42
2022/10/24 09:44:40;;;;;;;12.07;1.40;;;17.20;99.90;;;;;;6217447;23;20152;-44
2022/10/24 09:47:20;;;;;;;6.70;1.40;;;17.30;99.90;;;;;;6216793;23;20168;-39
2022/10/24 09:49:46;;;;;;;9.27;1.67;;;17.50;99.90;;;;;;6217618;23;20180;-41
2022/10/24 09:52:23;;;;;;;14.27;2.17;;;17.50;99.90;;;;;;6217871;23;20214;-44
2022/10/24 09:55:21;;;;;;;6.63;1.60;;;17.50;99.90;;;;;;6216951;23;20152;-40
2022/10/24 09:57:50;;;;;;;5.80;1.57;;;17.50;99.90;;;;;;6216998;23;20172;-40
2022/10/24 10:01:00;;;;;;;11.43;1.63;;;17.50;99.90;;;;;;6217179;23;20180;-42
2022/10/24 10:03:26;;;;;;;4.70;1.27;;;17.50;99.90;;;;;;6121844;23;20163;-43
2022/10/24 10:05:54;;;;;;;8.93;1.90;;;17.40;99.90;;;;;;6190325;23;20156;-42
2022/10/24 10:08:23;;;;;;;6.90;1.50;;;17.40;99.90;;;;;;6216762;23;20634;-42
2022/10/24 10:11:02;;;;;;;9.10;1.50;;;17.40;99.90;;;;;;6216763;23;20487;-40
2022/10/24 10:13:28;;;;;;;9.87;1.57;;;17.40;99.90;;;;;;6217211;23;20145;-38
2022/10/24 10:16:02;;;;;;;6.10;1.50;;;17.40;99.90;;;;;;6190149;23;20152;-42
2022/10/24 10:18:33;;;;;;;3.30;0.90;;;17.30;99.90;;;;;;6189932;23;20661;-43
2022/10/24 10:21:02;;;;;;;6.97;1.43;;;17.30;99.90;;;;;;6217183;23;20568;-40
2022/10/24 10:23:32;;;;;;;9.07;1.93;;;17.40;99.90;;;;;;6216644;23;20152;-41
2022/10/24 10:26:20;;;;;;;6.37;1.30;;;17.40;99.90;;;;;;6216717;23;20147;-42
2022/10/24 10:29:17;;;;;;;5.33;1.37;;;17.50;99.90;;;;;;6216643;23;20177;-42
2022/10/24 10:31:43;;;;;;;6.60;1.67;;;17.70;99.90;;;;;;6216057;23;20243;-42
2022/10/24 10:34:32;;;;;;;8.53;1.67;;;17.80;99.90;;;;;;6190073;23;20167;-43
2022/10/24 10:37:15;;;;;;;8.10;1.63;;;18.00;99.90;;;;;;6216888;23;20155;-44
2022/10/24 10:40:00;;;;;;;6.70;1.33;;;18.20;99.90;;;;;;6216585;23;20172;-44
2022/10/24 10:42:40;;;;;;;6.43;1.33;;;18.30;99.90;;;;;;6189858;23;20155;-42
2022/10/24 10:45:25;;;;;;;3.50;1.20;;;18.40;99.90;;;;;;6216353;23;20247;-41
2022/10/24 10:48:17;;;;;;;6.80;1.63;;;18.40;99.90;;;;;;6216810;23;20175;-43
2022/10/24 10:51:12;;;;;;;10.87;2.10;;;18.40;99.90;;;;;;6216533;23;20582;-42
2022/10/24 10:53:59;;;;;;;6.53;1.30;;;18.60;99.90;;;;;;6216485;23;20148;-42
2022/10/24 10:56:44;;;;;;;5.00;1.30;;;18.50;99.90;;;;;;6216545;23;20466;-43
2022/10/24 10:59:25;;;;;;;12.03;1.67;;;18.50;99.90;;;;;;6216418;23;20196;-43
2022/10/24 11:01:59;;;;;;;5.70;1.33;;;18.60;99.90;;;;;;6217647;23;20551;-41
2022/10/24 11:04:57;;;;;;;7.77;1.60;;;18.60;99.90;;;;;;6216640;23;20163;-41
2022/10/24 11:07:36;;;;;;;6.07;1.30;;;18.60;99.90;;;;;;6189756;23;20219;-43
2022/10/24 11:10:08;;;;;;;6.70;1.13;;;18.60;99.90;;;;;;6216698;23;20215;-43
2022/10/24 11:12:42;;;;;;;7.70;1.63;;;18.50;99.90;;;;;;6216324;23;20155;-41
2022/10/24 11:15:23;;;;;;;8.53;1.97;;;18.40;99.90;;;;;;6216579;23;20550;-44
2022/10/24 11:18:10;;;;;;;7.50;1.57;;;18.40;99.90;;;;;;6216549;23;20175;-41
2022/10/24 11:20:44;;;;;;;5.93;1.20;;;18.40;99.90;;;;;;6216421;23;20164;-43
2022/10/24 11:23:26;;;;;;;7.50;1.50;;;18.50;99.90;;;;;;6216606;23;20152;-43
2022/10/24 11:25:59;;;;;;;11.13;1.37;;;18.50;99.90;;;;;;6216204;23;20137;-43
2022/10/24 11:28:38;;;;;;;9.53;1.70;;;18.50;99.90;;;;;;6216162;23;20677;-43
2022/10/24 11:31:12;;;;;;;7.07;1.93;;;18.70;99.90;;;;;;6216590;23;20143;-40
2022/10/24 11:33:52;;;;;;;12.60;2.47;;;18.90;99.90;;;;;;6216325;23;20160;-42
2022/10/24 11:36:35;;;;;;;11.17;1.93;;;18.90;99.90;;;;;;6216529;23;20140;-44
2022/10/24 11:39:21;;;;;;;16.17;1.83;;;19.00;99.90;;;;;;6215924;23;20514;-42
2022/10/24 11:42:08;;;;;;;8.53;1.97;;;19.00;99.90;;;;;;6215124;23;20156;-43
2022/10/24 11:44:54;;;;;;;6.60;1.67;;;19.10;99.90;;;;;;6216308;23;20164;-43
2022/10/24 11:47:22;;;;;;;10.97;1.60;;;19.00;99.90;;;;;;6216507;23;20176;-44
2022/10/24 11:50:11;;;;;;;8.23;1.60;;;18.90;99.90;;;;;;6216811;23;20160;-48
2022/10/24 11:52:50;;;;;;;9.57;1.87;;;18.80;99.90;;;;;;6217119;23;20145;-50
2022/10/24 11:55:25;;;;;;;9.13;1.80;;;18.70;99.90;;;;;;6216789;23;20495;-49
2022/10/24 11:57:56;;;;;;;8.00;1.60;;;18.60;99.90;;;;;;6216564;23;20247;-47
2022/10/24 12:00:50;;;;;;;6.77;1.50;;;18.60;99.90;;;;;;6217008;23;20172;-50
2022/10/24 12:03:50;;;;;;;10.80;1.60;;;18.40;99.90;;;;;;6217357;23;20151;-47
2022/10/24 12:06:37;;;;;;;7.53;1.60;;;18.40;99.90;;;;;;6217663;23;20445;-50
2022/10/24 12:09:09;;;;;;;4.47;1.27;;;18.40;99.90;;;;;;6217228;23;20194;-49
2022/10/24 12:11:41;;;;;;;7.53;1.43;;;18.40;99.90;;;;;;6216685;23;20168;-48
2022/10/24 12:14:24;;;;;;;7.37;1.53;;;18.40;99.90;;;;;;6216761;23;20549;-48
2022/10/24 12:16:59;;;;;;;8.80;1.50;;;18.40;99.90;;;;;;6216888;23;20145;-49
2022/10/24 12:19:26;;;;;;;5.87;1.60;;;18.40;99.90;;;;;;6216771;23;20171;-49
2022/10/24 12:22:01;;;;;;;6.50;1.40;;;18.50;99.90;;;;;;6216586;23;20214;-47
2022/10/24 12:24:33;;;;;;;7.73;1.70;;;18.60;99.90;;;;;;6216833;23;20151;-47
2022/10/24 12:27:17;;;;;;;6.10;1.30;;;18.50;99.90;;;;;;6216448;23;20472;-49
2022/10/24 12:29:43;;;;;;;8.63;1.20;;;18.50;99.90;;;;;;6217120;23;20152;-47
2022/10/24 12:32:32;;;;;;;6.50;1.57;;;18.50;99.90;;;;;;6216841;23;20236;-47
2022/10/24 12:35:03;;;;;;;5.10;1.07;;;18.50;99.90;;;;;;6216568;23;20606;-48
2022/10/24 12:37:28;;;;;;;8.60;1.03;;;18.60;99.90;;;;;;6216263;23;20203;-50
2022/10/24 12:39:56;;;;;;;4.70;1.20;;;18.60;99.90;;;;;;6217178;23;20179;-49
2022/10/24 12:42:22;;;;;;;4.67;1.50;;;18.60;99.90;;;;;;6216223;23;20622;-49
2022/10/24 12:45:43;;;;;;;6.27;1.50;;;18.50;99.90;;;;;;6216657;23;20149;-50
2022/10/24 12:48:13;;;;;;;7.80;1.30;;;18.40;99.90;;;;;;6150035;23;20176;-49
2022/10/24 12:50:38;;;;;;;7.77;1.30;;;18.40;99.90;;;;;;6216439;23;20148;-47
2022/10/24 12:53:17;;;;;;;8.43;1.47;;;18.40;99.90;;;;;;6216507;23;20152;-48
2022/10/24 12:55:42;;;;;;;4.27;1.00;;;18.40;99.90;;;;;;6216486;23;20149;-49
2022/10/24 12:58:35;;;;;;;7.27;1.47;;;18.50;99.90;;;;;;6216141;23;20172;-46
2022/10/24 13:01:22;;;;;;;5.23;1.33;;;18.60;99.90;;;;;;6210804;23;20175;-47
2022/10/24 13:03:52;;;;;;;9.60;1.77;;;18.70;99.90;;;;;;6216884;23;20132;-46
2022/10/24 13:06:26;;;;;;;5.40;1.27;;;18.60;99.90;;;;;;6216047;23;20160;-48